Marcham, United Kingdom
Current Conditions -  °F | °C
As of 9:50 PM on Wednesday 26 Nov 2014 (Local Time) from EGTK Reporting Station
Moderate Fog Moderate Fog  
Wind Chill: 45°   Ceiling: Unl
Heat Index: 45°   Visibility: 0.21mi
Dew Point: 45°   Wind: 1mph
Humidity: 100%   Direction: 340°NNW
Pressure: 29.77"   Gusts: NA
Location:  51.67°N, 1.34°W
Report Text: EGTK 262150Z 34001KT 0350 R19/0900 FG VV/// 07/07 Q1008
Loading
Personal Weather Stations






























Interactive Weather Map New forecast layout! Learn more

10-Day Weather Forecast

Advertisements
Track Severe Weather on mobile